Time;durP1;ratioP1;P1;durP2;ratioP2;P2;SDS_P1;SDS_P2;PMS_P1;PMS_P2;Temp;Humidity;BMP_temperature;BMP_pressure;BME280_temperature;BME280_humidity;BME280_pressure;Samples;Min_cycle;Max_cycle;Signal;HPM_P1;HPM_P2
2022/01/22 00:01:45;;;;;;;3.55;0.43;;;15.10;49.70;;;;;;5127658;28;20487;-70
2022/01/22 00:04:10;;;;;;;2.55;0.40;;;15.10;49.70;;;;;;5117045;28;20072;-72
2022/01/22 00:06:36;;;;;;;3.90;0.70;;;15.10;49.70;;;;;;5114192;28;20101;-70
2022/01/22 00:09:06;;;;;;;2.55;0.30;;;15.10;49.70;;;;;;5113781;28;20150;-71
2022/01/22 00:11:37;;;;;;;2.22;0.40;;;15.10;49.70;;;;;;5114060;28;20043;-66
2022/01/22 00:14:35;;;;;;;2.92;0.40;;;15.20;49.80;;;;;;5113693;28;20475;-72
2022/01/22 00:16:53;;;;;;;4.18;0.50;;;15.10;49.80;;;;;;5114846;28;20066;-72
2022/01/22 00:19:19;;;;;;;3.22;0.50;;;15.10;49.80;;;;;;5113889;28;20048;-70
2022/01/22 00:21:48;;;;;;;4.80;0.65;;;15.10;49.80;;;;;;5113673;28;20455;-70
2022/01/22 00:24:15;;;;;;;1.75;0.52;;;15.10;49.90;;;;;;5113651;28;20047;-71
2022/01/22 00:26:43;;;;;;;2.15;0.52;;;15.10;50.60;;;;;;5113527;28;20074;-71
2022/01/22 00:29:10;;;;;;;4.15;0.45;;;15.10;49.90;;;;;;5113872;28;20040;-70
2022/01/22 00:31:37;;;;;;;3.50;0.88;;;15.00;49.80;;;;;;5113593;28;20046;-70
2022/01/22 00:34:03;;;;;;;3.28;0.98;;;15.10;49.90;;;;;;5114629;28;20032;-72
2022/01/22 00:36:29;;;;;;;1.95;0.80;;;15.10;50.00;;;;;;5114641;28;20118;-72
2022/01/22 00:38:54;;;;;;;2.38;0.50;;;15.10;50.00;;;;;;5114411;28;20111;-70
2022/01/22 00:41:21;;;;;;;2.63;0.50;;;15.10;50.00;;;;;;5113157;28;20545;-70
2022/01/22 00:43:47;;;;;;;4.22;0.55;;;15.00;50.00;;;;;;5113119;28;20060;-70
2022/01/22 00:46:13;;;;;;;2.83;0.40;;;15.00;50.10;;;;;;5113180;28;20046;-70
2022/01/22 00:48:38;;;;;;;3.47;0.63;;;15.00;50.00;;;;;;5114103;28;20028;-70
2022/01/22 00:51:04;;;;;;;2.80;0.40;;;15.00;50.10;;;;;;5112808;28;20391;-71
2022/01/22 00:53:29;;;;;;;1.52;0.30;;;15.00;50.10;;;;;;5114212;28;20122;-72
2022/01/22 00:55:55;;;;;;;2.75;0.50;;;15.00;50.10;;;;;;5112877;28;20074;-72
2022/01/22 00:58:21;;;;;;;2.67;0.50;;;15.00;50.10;;;;;;5112882;28;20040;-71
2022/01/22 01:00:46;;;;;;;2.55;0.40;;;15.00;50.10;;;;;;5112760;28;20035;-72
2022/01/22 01:03:15;;;;;;;2.83;0.30;;;15.00;50.20;;;;;;5113185;28;20047;-71
2022/01/22 01:05:40;;;;;;;3.55;0.70;;;15.00;50.20;;;;;;5114194;28;20047;-70
2022/01/22 01:08:06;;;;;;;2.90;0.40;;;15.00;50.20;;;;;;5112733;28;20051;-70
2022/01/22 01:10:32;;;;;;;2.25;0.40;;;15.00;50.20;;;;;;5112562;28;20042;-70
2022/01/22 01:12:58;;;;;;;3.97;0.47;;;15.00;50.20;;;;;;5112504;28;20520;-70
2022/01/22 01:15:54;;;;;;;4.18;0.85;;;15.00;50.20;;;;;;5111356;28;20036;-70
2022/01/22 01:32:38;;;;;;;2.53;0.98;;;14.90;50.30;;;;;;5128894;28;20051;-70
2022/01/22 01:34:45;;;;;;;2.47;0.60;;;14.90;50.30;;;;;;5128581;28;20080;-72
2022/01/22 01:37:14;;;;;;;2.42;0.30;;;14.90;50.40;;;;;;5128735;28;20051;-71
2022/01/22 01:39:46;;;;;;;2.88;0.50;;;14.90;50.40;;;;;;5128524;28;20043;-70
2022/01/22 01:42:18;;;;;;;3.53;0.68;;;14.90;50.40;;;;;;5130303;27;20382;-71
2022/01/22 01:44:44;;;;;;;3.40;0.43;;;14.90;50.40;;;;;;5128620;28;20043;-70
2022/01/22 01:47:13;;;;;;;2.78;0.43;;;14.90;50.40;;;;;;5129685;27;20037;-71
2022/01/22 01:49:39;;;;;;;2.90;0.40;;;14.90;50.40;;;;;;5128473;28;20046;-72
2022/01/22 01:52:13;;;;;;;1.95;0.32;;;14.90;50.50;;;;;;5128672;28;20048;-66
2022/01/22 01:57:31;;;;;;;1.70;0.50;;;14.90;50.50;;;;;;5129863;27;20860;-72
2022/01/22 01:59:59;;;;;;;3.97;0.50;;;14.90;50.50;;;;;;5128980;28;20061;-71
2022/01/22 02:02:27;;;;;;;3.58;0.80;;;14.90;50.50;;;;;;5128852;28;20130;-71
2022/01/22 02:04:52;;;;;;;3.22;0.30;;;14.90;50.50;;;;;;5129167;28;20111;-71
2022/01/22 02:07:18;;;;;;;5.05;0.60;;;14.80;50.50;;;;;;5128932;27;20478;-70
2022/01/22 02:09:44;;;;;;;3.38;0.60;;;14.90;50.60;;;;;;5128778;28;20511;-70
2022/01/22 02:12:21;;;;;;;2.92;0.73;;;14.80;50.50;;;;;;5129014;28;20047;-71
2022/01/22 02:25:51;;;;;;;2.40;0.43;;;14.80;50.60;;;;;;5128288;28;20478;-71
2022/01/22 02:28:16;;;;;;;2.60;0.30;;;14.80;50.60;;;;;;5128227;28;20055;-71
2022/01/22 02:30:46;;;;;;;1.75;0.38;;;14.80;50.70;;;;;;5129726;28;20043;-70
2022/01/22 02:36:01;;;;;;;2.80;0.40;;;14.80;50.70;;;;;;5130214;27;20350;-71
2022/01/22 02:41:17;;;;;;;3.15;0.20;;;14.80;50.80;;;;;;5129064;28;20089;-70
2022/01/22 02:43:43;;;;;;;3.23;0.63;;;14.80;51.60;;;;;;5127849;28;20039;-71
2022/01/22 02:46:09;;;;;;;2.58;0.40;;;14.70;50.80;;;;;;5128801;28;20092;-71
2022/01/22 02:48:35;;;;;;;3.40;0.55;;;14.80;50.90;;;;;;5128966;28;20436;-71
2022/01/22 02:51:00;;;;;;;2.65;0.30;;;14.70;50.90;;;;;;5128798;28;20035;-67
2022/01/22 02:53:27;;;;;;;2.30;0.40;;;14.70;50.90;;;;;;5128436;28;20035;-71
2022/01/22 02:55:54;;;;;;;1.95;0.30;;;14.80;51.00;;;;;;5128706;28;20501;-67
2022/01/22 02:58:20;;;;;;;1.55;0.30;;;14.70;51.00;;;;;;5128764;28;20115;-69
2022/01/22 03:00:45;;;;;;;2.10;0.45;;;14.70;51.00;;;;;;5130118;28;20451;-67
2022/01/22 03:03:11;;;;;;;2.08;0.30;;;14.70;51.00;;;;;;5128670;28;20487;-70
2022/01/22 03:05:37;;;;;;;4.47;0.80;;;14.70;51.00;;;;;;5128336;28;20456;-67
2022/01/22 03:08:07;;;;;;;2.28;0.38;;;14.70;51.10;;;;;;5129572;28;20062;-68
2022/01/22 03:10:33;;;;;;;2.72;0.68;;;14.70;51.10;;;;;;5128388;28;20039;-67
2022/01/22 03:18:40;;;;;;;2.70;0.52;;;14.70;51.20;;;;;;5130091;27;20742;-67
2022/01/22 03:29:32;;;;;;;2.10;0.35;;;14.70;51.20;;;;;;5128504;28;20440;-66
2022/01/22 03:31:57;;;;;;;1.45;0.20;;;14.60;51.20;;;;;;5128952;28;20043;-69
2022/01/22 03:34:23;;;;;;;1.55;0.30;;;14.60;51.20;;;;;;5128958;28;20111;-70
2022/01/22 03:36:49;;;;;;;1.30;0.20;;;14.60;51.20;;;;;;5129068;28;20051;-67
2022/01/22 03:39:15;;;;;;;2.38;0.52;;;14.60;51.20;;;;;;5130101;28;20110;-66
2022/01/22 03:41:40;;;;;;;1.33;0.30;;;14.60;52.00;;;;;;5129976;28;20471;-70
2022/01/22 03:44:08;;;;;;;1.80;0.43;;;14.60;51.20;;;;;;5128394;28;20040;-67
2022/01/22 03:46:36;;;;;;;2.08;0.30;;;14.60;51.30;;;;;;5128687;28;20047;-66
2022/01/22 03:49:05;;;;;;;1.20;0.30;;;14.60;51.30;;;;;;5128700;28;20478;-66
2022/01/22 03:51:37;;;;;;;2.22;0.30;;;14.60;51.30;;;;;;5128633;28;20391;-67
2022/01/22 03:54:06;;;;;;;2.05;0.20;;;14.60;51.30;;;;;;5129647;27;20039;-68
2022/01/22 03:56:32;;;;;;;3.28;0.20;;;14.60;51.30;;;;;;5128091;28;20035;-66
2022/01/22 03:58:58;;;;;;;2.05;0.28;;;14.60;51.40;;;;;;5128357;28;20051;-68
2022/01/22 04:04:21;;;;;;;1.85;0.20;;;14.60;51.40;;;;;;5129265;28;20047;-66
2022/01/22 04:09:35;;;;;;;1.55;0.57;;;14.60;51.50;;;;;;5129172;28;20447;-70
2022/01/22 04:12:01;;;;;;;2.60;0.28;;;14.60;51.50;;;;;;5129290;27;20466;-66
2022/01/22 04:14:32;;;;;;;2.85;0.30;;;14.60;51.50;;;;;;5122671;28;20115;-71
2022/01/22 04:25:21;;;;;;;1.67;0.10;;;14.50;51.50;;;;;;5128647;28;20105;-68
2022/01/22 04:27:53;;;;;;;2.70;0.22;;;14.50;51.50;;;;;;5130226;27;20047;-66
2022/01/22 04:30:20;;;;;;;1.98;0.32;;;14.50;51.60;;;;;;5128775;28;20053;-69
2022/01/22 04:32:46;;;;;;;1.67;0.40;;;14.50;51.60;;;;;;5128758;28;20050;-68
2022/01/22 04:35:15;;;;;;;1.35;0.20;;;14.50;51.60;;;;;;5128637;28;20051;-69
2022/01/22 04:37:41;;;;;;;1.08;0.20;;;14.50;51.60;;;;;;5128540;28;20047;-71
2022/01/22 04:40:08;;;;;;;1.98;0.20;;;14.50;51.60;;;;;;5128914;28;20100;-71
2022/01/22 04:42:36;;;;;;;0.95;0.25;;;14.50;51.60;;;;;;5129765;27;20067;-72
2022/01/22 04:45:15;;;;;;;1.92;0.20;;;14.50;51.60;;;;;;5128843;28;20122;-71
2022/01/22 04:55:50;;;;;;;1.20;0.25;;;14.50;51.70;;;;;;5130359;27;20784;-71
2022/01/22 04:58:16;;;;;;;0.93;0.10;;;14.50;51.70;;;;;;5129192;28;20035;-71
2022/01/22 05:00:45;;;;;;;1.42;0.10;;;14.50;51.70;;;;;;5129337;27;20475;-67
2022/01/22 05:03:12;;;;;;;1.55;0.15;;;14.50;51.80;;;;;;5128886;28;20477;-71
2022/01/22 05:05:38;;;;;;;0.82;0.13;;;14.40;51.70;;;;;;5128883;28;20039;-72
2022/01/22 05:08:04;;;;;;;1.55;0.10;;;14.50;51.80;;;;;;5128929;28;20131;-71
2022/01/22 05:10:30;;;;;;;1.67;0.30;;;14.50;51.80;;;;;;5129079;28;20092;-72
2022/01/22 05:12:55;;;;;;;1.63;0.20;;;14.40;51.80;;;;;;5128603;28;20510;-71
2022/01/22 05:15:21;;;;;;;0.85;0.10;;;14.40;51.80;;;;;;5129830;28;20127;-71
2022/01/22 05:17:48;;;;;;;1.42;0.10;;;14.50;51.90;;;;;;5128934;27;20387;-70
2022/01/22 05:23:06;;;;;;;0.77;0.10;;;14.40;51.90;;;;;;5089317;28;20393;-71
2022/01/22 05:25:37;;;;;;;1.50;0.20;;;14.40;51.90;;;;;;5088014;28;20106;-72
2022/01/22 05:38:53;;;;;;;1.58;0.20;;;14.40;52.00;;;;;;5128711;28;20201;-71
2022/01/22 05:41:19;;;;;;;0.80;0.10;;;14.40;52.00;;;;;;5128800;28;20130;-71
2022/01/22 05:43:47;;;;;;;1.27;0.30;;;14.40;52.00;;;;;;5128723;28;20051;-72
2022/01/22 05:46:13;;;;;;;1.27;0.10;;;14.40;52.10;;;;;;5128858;28;20039;-71
2022/01/22 05:48:39;;;;;;;0.40;0.10;;;14.40;52.10;;;;;;5128638;28;20061;-71
2022/01/22 05:51:05;;;;;;;1.58;0.10;;;14.40;52.10;;;;;;5130039;28;20089;-71
2022/01/22 05:54:13;;;;;;;0.47;0.10;;;14.40;52.10;;;;;;5128599;28;20054;-72
2022/01/22 06:01:49;;;;;;;0.77;0.20;;;14.30;52.00;;;;;;5129590;27;20055;-71
2022/01/22 06:04:18;;;;;;;0.88;0.10;;;14.40;52.90;;;;;;5129727;28;20031;-72
2022/01/22 06:06:46;;;;;;;0.77;0.10;;;14.30;52.00;;;;;;5128347;28;20039;-67
2022/01/22 06:09:12;;;;;;;0.80;0.10;;;14.30;52.10;;;;;;5128328;28;20091;-71
2022/01/22 06:11:57;;;;;;;1.95;0.28;;;14.30;52.10;;;;;;5129629;28;20031;-72
2022/01/22 06:14:22;;;;;;;0.93;0.10;;;14.30;52.20;;;;;;5145671;27;20031;-71
2022/01/22 06:16:48;;;;;;;0.80;0.13;;;14.30;52.20;;;;;;5128260;28;20596;-71
2022/01/22 06:19:14;;;;;;;0.40;0.10;;;14.30;52.20;;;;;;5129415;27;20035;-72
2022/01/22 06:21:40;;;;;;;1.30;0.10;;;14.30;52.20;;;;;;5129631;28;20385;-71
2022/01/22 06:24:06;;;;;;;0.70;0.10;;;14.30;52.20;;;;;;5128049;28;20047;-72
2022/01/22 06:26:32;;;;;;;0.80;0.10;;;14.30;52.30;;;;;;5128026;28;20044;-72
2022/01/22 06:28:59;;;;;;;0.60;0.10;;;14.30;52.30;;;;;;5128139;28;20046;-71
2022/01/22 06:31:27;;;;;;;0.75;0.00;;;14.30;52.30;;;;;;5128839;27;20070;-70
2022/01/22 06:33:53;;;;;;;0.65;0.17;;;14.30;52.30;;;;;;5129123;28;20061;-71
2022/01/22 06:36:21;;;;;;;0.52;0.00;;;14.30;52.30;;;;;;5127669;28;20040;-71
2022/01/22 06:38:48;;;;;;;1.17;0.10;;;14.30;52.30;;;;;;5129061;28;20533;-71
2022/01/22 06:41:45;;;;;;;0.57;0.10;;;14.30;52.30;;;;;;5127707;28;20047;-71
2022/01/22 06:43:59;;;;;;;0.40;0.10;;;14.20;52.30;;;;;;5119079;27;20052;-73
2022/01/22 06:46:25;;;;;;;2.45;0.10;;;14.30;52.40;;;;;;5113988;28;20050;-71
2022/01/22 06:48:50;;;;;;;0.70;0.13;;;14.20;52.30;;;;;;5113878;28;20407;-71
2022/01/22 06:51:17;;;;;;;0.50;0.10;;;14.20;52.40;;;;;;5114914;28;20087;-71
2022/01/22 06:53:43;;;;;;;1.25;0.10;;;14.20;52.40;;;;;;5113828;28;20039;-71
2022/01/22 06:56:10;;;;;;;1.23;0.15;;;14.20;52.40;;;;;;5114940;28;20088;-71
2022/01/22 06:58:35;;;;;;;0.90;0.10;;;14.20;52.40;;;;;;5113946;28;20126;-71
2022/01/22 07:01:01;;;;;;;0.47;0.10;;;14.20;52.50;;;;;;5115115;28;20044;-71
2022/01/22 07:03:27;;;;;;;1.30;0.10;;;14.20;52.50;;;;;;5113576;28;20043;-71
2022/01/22 07:05:52;;;;;;;0.85;0.10;;;14.20;52.50;;;;;;5114680;28;20039;-71
2022/01/22 07:08:18;;;;;;;1.90;0.20;;;14.20;53.30;;;;;;5113831;28;20036;-71
2022/01/22 07:10:43;;;;;;;0.60;0.10;;;14.20;52.50;;;;;;5113408;28;20035;-71
2022/01/22 07:13:09;;;;;;;0.75;0.00;;;14.20;52.50;;;;;;5113398;28;20052;-66
2022/01/22 07:15:35;;;;;;;0.85;0.10;;;14.20;52.50;;;;;;5113533;28;20055;-71
2022/01/22 07:18:01;;;;;;;0.98;0.13;;;14.20;52.50;;;;;;5113284;28;20044;-71
2022/01/22 07:20:29;;;;;;;0.57;0.10;;;14.20;52.50;;;;;;5113280;28;20050;-71
2022/01/22 07:23:14;;;;;;;0.38;0.10;;;14.20;52.60;;;;;;5113502;28;20129;-70
2022/01/22 07:25:41;;;;;;;1.10;0.10;;;14.20;52.60;;;;;;5114519;28;20136;-66
2022/01/22 07:28:07;;;;;;;1.40;0.10;;;14.20;52.60;;;;;;5114639;28;20114;-66
2022/01/22 07:30:33;;;;;;;0.75;0.10;;;14.20;52.60;;;;;;5113024;28;20435;-70
2022/01/22 07:32:58;;;;;;;0.70;0.05;;;14.20;52.70;;;;;;5112764;28;20064;-66
2022/01/22 07:35:24;;;;;;;0.77;0.08;;;14.20;52.70;;;;;;5113006;28;20073;-70
2022/01/22 07:37:50;;;;;;;0.57;0.10;;;14.20;52.70;;;;;;5112900;28;20039;-69
2022/01/22 07:40:16;;;;;;;0.10;0.00;;;14.20;52.70;;;;;;5113253;28;20040;-70
2022/01/22 07:42:42;;;;;;;0.20;0.10;;;14.10;52.70;;;;;;5112740;28;20130;-71
2022/01/22 07:45:09;;;;;;;0.55;0.10;;;14.10;52.70;;;;;;5113161;28;20036;-66
2022/01/22 07:47:38;;;;;;;0.75;0.10;;;14.10;52.70;;;;;;5114403;28;20442;-67
2022/01/22 07:50:05;;;;;;;0.60;0.10;;;14.10;52.70;;;;;;5113032;28;20388;-69
2022/01/22 07:52:31;;;;;;;0.40;0.05;;;14.10;52.80;;;;;;5113978;28;20036;-70
2022/01/22 07:54:56;;;;;;;0.93;0.10;;;14.10;52.80;;;;;;5111978;28;20039;-70
2022/01/22 07:57:22;;;;;;;1.17;0.10;;;14.10;52.80;;;;;;5112575;28;20525;-66
2022/01/22 07:59:48;;;;;;;0.60;0.10;;;14.10;52.80;;;;;;5112798;28;20364;-68
2022/01/22 08:02:14;;;;;;;0.40;0.10;;;14.10;52.80;;;;;;5112382;28;20044;-70
2022/01/22 08:04:40;;;;;;;0.63;0.00;;;14.10;52.80;;;;;;5112482;28;20055;-68
2022/01/22 08:07:06;;;;;;;0.75;0.10;;;14.10;52.80;;;;;;5113761;28;20327;-66
2022/01/22 08:09:32;;;;;;;0.63;0.10;;;14.10;52.80;;;;;;5112330;28;20039;-66
2022/01/22 08:12:01;;;;;;;0.28;0.03;;;14.10;52.80;;;;;;5112419;28;20100;-66
2022/01/22 08:14:27;;;;;;;0.70;0.10;;;14.10;52.80;;;;;;5112421;28;20092;-70
2022/01/22 08:16:53;;;;;;;0.93;0.00;;;14.10;52.90;;;;;;5112310;28;20428;-66
2022/01/22 08:19:19;;;;;;;0.47;0.13;;;14.10;52.80;;;;;;5112114;28;20035;-69
2022/01/22 08:21:46;;;;;;;0.50;0.10;;;14.10;52.90;;;;;;5112510;28;20043;-70
2022/01/22 08:24:13;;;;;;;1.17;0.00;;;14.00;52.80;;;;;;5113375;28;20042;-66
2022/01/22 08:26:45;;;;;;;0.85;0.20;;;14.00;52.80;;;;;;5112033;28;20043;-67
2022/01/22 08:29:11;;;;;;;0.73;0.00;;;14.10;52.90;;;;;;5113290;27;20039;-70
2022/01/22 08:31:46;;;;;;;0.88;0.10;;;14.10;52.90;;;;;;5111675;28;20062;-67
2022/01/22 08:36:58;;;;;;;1.83;0.13;;;14.10;52.80;;;;;;5111918;28;20039;-67
2022/01/22 08:39:24;;;;;;;1.23;0.10;;;14.10;52.80;;;;;;5111936;28;20425;-66
2022/01/22 08:41:50;;;;;;;0.63;0.10;;;14.00;52.80;;;;;;5109581;28;20039;-66
2022/01/22 08:44:16;;;;;;;1.20;0.08;;;14.00;52.90;;;;;;5109624;28;20039;-66
2022/01/22 08:46:42;;;;;;;1.45;0.10;;;14.00;53.30;;;;;;5109169;28;20122;-67
2022/01/22 08:49:12;;;;;;;1.52;0.10;;;14.10;53.80;;;;;;5109118;28;20043;-66
2022/01/22 08:51:40;;;;;;;1.02;0.10;;;14.10;53.90;;;;;;5111584;28;20056;-65
2022/01/22 08:54:09;;;;;;;3.30;0.20;;;14.10;54.10;;;;;;5109855;28;20380;-67
2022/01/22 08:56:34;;;;;;;0.55;0.05;;;14.20;54.00;;;;;;5110259;28;20107;-66
2022/01/22 08:59:03;;;;;;;0.80;0.05;;;14.40;54.00;;;;;;5110499;28;20048;-67
2022/01/22 09:01:28;;;;;;;0.13;0.00;;;14.50;53.80;;;;;;5109338;28;20043;-67
2022/01/22 09:03:54;;;;;;;0.15;0.00;;;14.70;53.70;;;;;;5110317;28;20130;-66
2022/01/22 09:06:23;;;;;;;0.30;0.00;;;14.80;53.50;;;;;;5110730;28;20040;-68
2022/01/22 09:08:53;;;;;;;0.47;0.10;;;15.10;53.40;;;;;;5111962;28;20057;-67
2022/01/22 09:11:19;;;;;;;0.20;0.00;;;15.30;53.10;;;;;;5109144;28;20229;-67
2022/01/22 09:13:45;;;;;;;1.35;0.00;;;15.60;52.70;;;;;;5108853;28;20078;-66
2022/01/22 09:16:11;;;;;;;0.60;0.10;;;15.80;52.30;;;;;;5110179;28;20035;-67
2022/01/22 09:18:37;;;;;;;4.30;0.00;;;16.10;51.80;;;;;;5109522;28;20046;-66
2022/01/22 09:21:04;;;;;;;2.60;0.35;;;16.30;51.30;;;;;;5111532;28;20043;-66
2022/01/22 09:23:31;;;;;;;0.35;0.13;;;16.60;51.00;;;;;;5107721;28;20503;-67
2022/01/22 09:25:58;;;;;;;0.10;0.00;;;16.80;50.60;;;;;;5110495;28;20039;-67
2022/01/22 09:28:25;;;;;;;0.98;0.00;;;17.10;50.10;;;;;;5103873;28;20067;-63
2022/01/22 09:30:51;;;;;;;2.05;0.10;;;17.20;49.70;;;;;;5108780;28;20081;-62
2022/01/22 09:33:17;;;;;;;4.80;0.32;;;17.40;49.40;;;;;;5109896;28;20044;-62
2022/01/22 09:35:43;;;;;;;1.52;0.08;;;17.50;49.20;;;;;;5110265;28;20039;-62
2022/01/22 09:38:09;;;;;;;0.60;0.00;;;17.60;49.00;;;;;;5111182;28;20043;-64
2022/01/22 09:40:35;;;;;;;0.20;0.00;;;17.80;48.90;;;;;;5110739;28;20038;-60
2022/01/22 09:43:00;;;;;;;0.25;0.00;;;17.90;48.60;;;;;;5110849;28;20505;-61
2022/01/22 09:45:28;;;;;;;0.35;0.10;;;18.00;48.30;;;;;;5110659;28;20376;-61
2022/01/22 09:47:54;;;;;;;2.00;0.05;;;18.10;48.10;;;;;;5110455;28;20038;-62
2022/01/22 09:50:23;;;;;;;0.30;0.00;;;18.30;48.00;;;;;;5111173;28;20042;-61
2022/01/22 09:52:52;;;;;;;3.60;0.45;;;18.40;48.50;;;;;;5109869;28;20043;-61
2022/01/22 09:55:18;;;;;;;1.15;0.10;;;18.40;47.40;;;;;;5109966;28;20494;-61
2022/01/22 09:57:45;;;;;;;0.45;0.10;;;18.50;47.40;;;;;;5110343;28;20032;-61
2022/01/22 10:00:14;;;;;;;0.90;0.10;;;18.50;47.20;;;;;;5109567;28;20299;-68
2022/01/22 10:02:43;;;;;;;1.55;0.05;;;18.60;47.10;;;;;;5109472;28;20433;-68
2022/01/22 10:05:27;;;;;;;15.18;2.40;;;18.60;46.90;;;;;;5109369;28;20584;-66
2022/01/22 10:07:53;;;;;;;2.83;0.10;;;18.70;46.60;;;;;;5102806;28;20300;-67
2022/01/22 10:10:19;;;;;;;4.05;0.20;;;18.70;46.90;;;;;;5109831;28;20080;-66
2022/01/22 10:12:51;;;;;;;1.80;0.10;;;18.70;46.80;;;;;;5109491;28;20548;-72
2022/01/22 10:15:20;;;;;;;2.65;0.10;;;18.70;46.80;;;;;;5108921;28;20032;-68
2022/01/22 10:17:49;;;;;;;0.82;0.00;;;18.70;46.80;;;;;;5108958;28;20075;-70
2022/01/22 10:23:05;;;;;;;1.63;0.20;;;18.60;46.90;;;;;;5120863;27;2002345;-72
2022/01/22 10:25:38;;;;;;;1.90;0.17;;;18.60;47.10;;;;;;5151993;27;20049;-69
2022/01/22 10:28:17;;;;;;;0.60;0.10;;;18.70;47.20;;;;;;5151294;27;20356;-74
2022/01/22 10:30:45;;;;;;;0.50;0.10;;;18.60;47.10;;;;;;5152300;27;20064;-66
2022/01/22 10:35:50;;;;;;;1.63;0.20;;;18.60;47.00;;;;;;5128998;27;20900;-68
2022/01/22 10:38:18;;;;;;;5.72;0.28;;;18.60;47.10;;;;;;5128206;28;20088;-67
2022/01/22 10:40:46;;;;;;;1.45;0.20;;;18.60;47.20;;;;;;5127931;28;20131;-66
2022/01/22 10:49:14;;;;;;;5.82;0.32;;;18.60;47.30;;;;;;5128270;27;20353;-67
2022/01/22 10:54:29;;;;;;;4.82;0.20;;;18.50;47.60;;;;;;5127738;27;20825;-73
2022/01/22 10:59:55;;;;;;;3.83;0.17;;;18.40;47.80;;;;;;5129181;27;20764;-69
2022/01/22 11:02:38;;;;;;;1.40;0.20;;;18.40;47.80;;;;;;5128441;28;20429;-67
2022/01/22 11:05:05;;;;;;;1.75;0.20;;;18.30;47.80;;;;;;5128900;28;20090;-71
2022/01/22 11:07:31;;;;;;;2.60;0.40;;;18.30;47.90;;;;;;5128603;28;20032;-70
2022/01/22 11:09:57;;;;;;;2.40;0.17;;;18.20;47.90;;;;;;5128044;28;20623;-71
2022/01/22 11:12:23;;;;;;;3.55;0.28;;;18.20;47.90;;;;;;5128328;28;20039;-69
2022/01/22 11:14:48;;;;;;;2.05;0.20;;;18.10;48.00;;;;;;5128862;28;20043;-68
2022/01/22 11:17:14;;;;;;;1.70;0.38;;;18.00;48.20;;;;;;5128085;28;20131;-68
2022/01/22 11:19:44;;;;;;;2.13;0.20;;;18.00;48.30;;;;;;5128323;28;20035;-69
2022/01/22 11:22:12;;;;;;;5.68;0.25;;;17.90;48.30;;;;;;5127843;28;20441;-69
2022/01/22 11:24:47;;;;;;;2.50;0.32;;;17.80;48.30;;;;;;5129715;27;20513;-68
2022/01/22 11:27:16;;;;;;;1.00;0.13;;;17.70;48.40;;;;;;5129041;28;20039;-70
2022/01/22 11:32:30;;;;;;;3.78;0.28;;;17.60;48.60;;;;;;5109877;27;20354;-68
2022/01/22 11:34:59;;;;;;;3.17;0.30;;;17.60;49.50;;;;;;5108497;28;20068;-70
2022/01/22 11:37:47;;;;;;;4.32;0.20;;;17.50;48.80;;;;;;5109740;28;20239;-70
2022/01/22 11:45:34;;;;;;;2.23;0.53;;;17.40;48.90;;;;;;5156919;27;1159641;-68
2022/01/22 11:48:24;;;;;;;3.03;0.40;;;17.20;49.20;;;;;;5153177;27;20280;-68
2022/01/22 11:50:52;;;;;;;1.30;0.17;;;17.10;49.30;;;;;;5153534;27;20030;-67
2022/01/22 11:53:34;;;;;;;1.63;0.20;;;17.00;49.30;;;;;;5153226;27;20050;-68
2022/01/22 11:56:23;;;;;;;1.52;0.20;;;17.00;49.40;;;;;;5152869;27;20046;-69
2022/01/22 12:07:22;;;;;;;2.13;0.50;;;16.80;49.70;;;;;;5130183;27;20349;-68
2022/01/22 12:15:49;;;;;;;3.10;1.05;;;16.70;49.80;;;;;;5152723;27;20103;-68
2022/01/22 12:18:29;;;;;;;1.98;0.32;;;16.70;49.80;;;;;;5153125;27;20091;-67
2022/01/22 12:26:14;;;;;;;1.60;0.30;;;16.60;49.80;;;;;;5130148;27;20298;-68
2022/01/22 12:31:20;;;;;;;1.70;0.30;;;16.60;49.90;;;;;;5130206;27;20419;-69
2022/01/22 12:36:41;;;;;;;2.17;0.40;;;16.50;50.00;;;;;;5089265;28;20360;-69
2022/01/22 12:39:16;;;;;;;2.35;0.30;;;16.50;50.20;;;;;;5088142;28;20131;-69
2022/01/22 12:41:51;;;;;;;1.65;0.55;;;16.40;50.10;;;;;;5088309;28;20066;-67
2022/01/22 12:44:28;;;;;;;1.35;0.32;;;16.40;50.20;;;;;;5088294;28;20079;-67
2022/01/22 12:46:58;;;;;;;1.10;0.40;;;16.40;50.20;;;;;;5088253;28;20039;-68
2022/01/22 12:49:24;;;;;;;2.70;0.70;;;16.30;50.30;;;;;;5087529;28;20043;-64
2022/01/22 12:51:55;;;;;;;2.25;0.50;;;16.30;50.30;;;;;;5086506;28;20043;-68
2022/01/22 12:54:29;;;;;;;;;;;16.20;50.50;;;;;;5088092;28;20445;-68
2022/01/22 12:57:12;;;;;;;2.58;0.35;;;16.20;50.80;;;;;;5087561;28;19924;-68
2022/01/22 13:02:49;;;;;;;2.13;0.40;;;16.20;50.80;;;;;;5152940;27;1156697;-69
2022/01/22 13:05:17;;;;;;;2.13;0.40;;;16.10;50.90;;;;;;5171790;27;20038;-68
2022/01/22 13:07:46;;;;;;;3.33;0.55;;;16.10;50.90;;;;;;5153164;27;20053;-68
2022/01/22 13:10:12;;;;;;;2.92;0.30;;;16.10;50.90;;;;;;5171650;27;20359;-68
2022/01/22 13:12:43;;;;;;;2.72;0.47;;;16.10;50.90;;;;;;5153159;27;20103;-68
2022/01/22 13:15:11;;;;;;;5.10;0.30;;;16.00;50.90;;;;;;5171425;27;20091;-67
2022/01/22 13:17:37;;;;;;;2.45;0.47;;;16.00;50.90;;;;;;5157455;27;20038;-68
2022/01/22 13:20:07;;;;;;;2.08;0.70;;;16.00;50.90;;;;;;5171512;27;20087;-69
2022/01/22 13:22:35;;;;;;;2.00;0.38;;;16.00;50.90;;;;;;5170144;27;20478;-67
2022/01/22 13:25:07;;;;;;;1.95;0.30;;;16.00;51.00;;;;;;5171460;27;20143;-68
2022/01/22 13:27:35;;;;;;;6.03;0.45;;;16.00;50.90;;;;;;5170266;27;20041;-68
2022/01/22 13:30:00;;;;;;;3.17;0.73;;;15.90;51.00;;;;;;5171620;27;20113;-68
2022/01/22 13:35:23;;;;;;;1.85;0.30;;;15.80;50.90;;;;;;5150956;27;20106;-67
2022/01/22 13:48:58;;;;;;;1.55;0.30;;;15.80;50.90;;;;;;5151976;27;20042;-68
2022/01/22 13:51:27;;;;;;;2.03;0.30;;;15.80;51.00;;;;;;5153239;27;20042;-69
2022/01/22 13:53:54;;;;;;;1.77;0.77;;;15.80;51.00;;;;;;5152800;27;20083;-68
2022/01/22 13:56:40;;;;;;;1.45;0.30;;;15.70;51.30;;;;;;5153151;27;20377;-69
2022/01/22 13:59:14;;;;;;;1.60;0.43;;;15.70;51.00;;;;;;5171224;27;20474;-68
2022/01/22 14:01:50;;;;;;;2.35;0.40;;;15.70;51.00;;;;;;5171417;27;20035;-68
2022/01/22 14:04:19;;;;;;;1.73;0.40;;;15.70;51.00;;;;;;5152947;27;20477;-69
2022/01/22 14:06:46;;;;;;;2.40;0.20;;;15.70;51.00;;;;;;5152960;27;20035;-67
2022/01/22 14:09:20;;;;;;;2.70;0.30;;;15.70;51.00;;;;;;5152773;27;20176;-68
2022/01/22 14:12:08;;;;;;;3.50;0.40;;;15.70;51.00;;;;;;5171192;27;20042;-68
2022/01/22 14:14:55;;;;;;;1.63;0.30;;;15.60;51.00;;;;;;5171032;27;20386;-67
2022/01/22 14:17:22;;;;;;;1.65;0.30;;;15.60;51.00;;;;;;5152496;27;20042;-68
2022/01/22 14:20:01;;;;;;;1.75;0.35;;;15.60;51.10;;;;;;5170971;27;20473;-69
2022/01/22 14:22:26;;;;;;;2.20;0.30;;;15.60;51.10;;;;;;5170971;27;20094;-69
2022/01/22 14:25:10;;;;;;;1.52;0.32;;;15.60;51.10;;;;;;5152322;27;20395;-69
2022/01/22 14:27:36;;;;;;;2.65;0.30;;;15.60;51.10;;;;;;5152312;27;20493;-67
2022/01/22 14:30:02;;;;;;;3.13;0.38;;;15.60;51.10;;;;;;5170817;27;20035;-68
2022/01/22 14:32:29;;;;;;;1.65;0.30;;;15.60;51.10;;;;;;5170879;27;20489;-68
2022/01/22 14:34:54;;;;;;;1.27;0.20;;;15.50;51.10;;;;;;5170715;27;20389;-69
2022/01/22 14:37:27;;;;;;;1.25;0.20;;;15.50;51.10;;;;;;5152002;27;20038;-68
2022/01/22 14:45:26;;;;;;;1.17;0.28;;;15.50;51.30;;;;;;5125562;27;20407;-68
2022/01/22 14:47:57;;;;;;;0.93;0.20;;;15.50;51.30;;;;;;5108734;28;20056;-68
2022/01/22 14:50:25;;;;;;;2.10;0.30;;;15.50;51.30;;;;;;5108432;28;20063;-70
2022/01/22 14:52:56;;;;;;;1.30;0.40;;;15.50;51.30;;;;;;5108550;28;20122;-67
2022/01/22 14:55:23;;;;;;;1.35;0.20;;;15.40;51.30;;;;;;5108356;28;20480;-68
2022/01/22 14:57:49;;;;;;;1.00;0.20;;;15.40;51.30;;;;;;5108269;28;20043;-69
2022/01/22 15:00:17;;;;;;;1.83;0.50;;;15.40;52.10;;;;;;5109494;28;20047;-68
2022/01/22 15:02:44;;;;;;;3.17;0.30;;;15.40;51.40;;;;;;5108167;28;20039;-68
2022/01/22 15:05:13;;;;;;;1.75;0.20;;;15.30;51.40;;;;;;5108083;28;20118;-68
2022/01/22 15:07:40;;;;;;;2.25;0.35;;;15.40;51.40;;;;;;5108334;28;20028;-67
2022/01/22 15:10:07;;;;;;;1.30;0.30;;;15.40;51.40;;;;;;5108343;28;20047;-68
2022/01/22 15:12:35;;;;;;;2.20;0.20;;;15.30;51.40;;;;;;5108123;28;20072;-67
2022/01/22 15:15:00;;;;;;;1.48;0.20;;;15.30;51.40;;;;;;5108203;28;20071;-69
2022/01/22 15:17:31;;;;;;;0.75;0.20;;;15.30;51.40;;;;;;5109177;28;20500;-69
2022/01/22 15:19:56;;;;;;;2.13;0.20;;;15.30;51.40;;;;;;5109321;28;20051;-68
2022/01/22 15:22:23;;;;;;;1.70;0.38;;;15.30;51.40;;;;;;5108212;28;20395;-68
2022/01/22 15:24:50;;;;;;;1.63;0.43;;;15.30;51.40;;;;;;5107800;28;20168;-68
2022/01/22 15:27:25;;;;;;;1.25;0.30;;;15.30;51.40;;;;;;5108858;28;20047;-68
2022/01/22 15:29:57;;;;;;;1.40;0.28;;;15.20;51.40;;;;;;5107787;28;20036;-68
2022/01/22 15:32:41;;;;;;;1.50;0.20;;;15.20;51.40;;;;;;5108975;28;20123;-69
2022/01/22 15:35:10;;;;;;;1.73;0.30;;;15.20;51.40;;;;;;5107868;28;20043;-68
2022/01/22 15:37:44;;;;;;;0.82;0.20;;;15.20;51.40;;;;;;5107466;28;20067;-68
2022/01/22 15:40:10;;;;;;;2.10;0.30;;;15.20;51.40;;;;;;5107703;28;20086;-68